sensor_id;sensor_type;location;lat;lon;timestamp;temperature;humidity
43151;DHT22;28755;51.478;5.702;2024-03-23T00:52:16;7.90;99.90
43151;DHT22;28755;51.478;5.702;2024-03-23T00:54:41;7.80;99.90
43151;DHT22;28755;51.478;5.702;2024-03-23T00:57:07;7.80;99.90
43151;DHT22;28755;51.478;5.702;2024-03-23T00:59:33;7.80;99.90
43151;DHT22;28755;51.478;5.702;2024-03-23T01:01:58;7.80;99.90
43151;DHT22;28755;51.478;5.702;2024-03-23T01:04:24;7.80;99.90
43151;DHT22;28755;51.478;5.702;2024-03-23T01:06:49;7.70;99.90
43151;DHT22;28755;51.478;5.702;2024-03-23T01:09:15;7.70;99.90
43151;DHT22;28755;51.478;5.702;2024-03-23T01:11:41;7.60;99.90
43151;DHT22;28755;51.478;5.702;2024-03-23T01:14:06;7.60;99.90
43151;DHT22;28755;51.478;5.702;2024-03-23T01:16:32;7.50;99.90
43151;DHT22;28755;51.478;5.702;2024-03-23T01:18:58;7.60;99.90
43151;DHT22;28755;51.478;5.702;2024-03-23T01:21:24;7.60;99.90
43151;DHT22;28755;51.478;5.702;2024-03-23T01:23:49;7.50;99.90
43151;DHT22;28755;51.478;5.702;2024-03-23T01:26:15;7.60;99.90
43151;DHT22;28755;51.478;5.702;2024-03-23T01:28:40;7.60;99.90
43151;DHT22;28755;51.478;5.702;2024-03-23T01:31:06;7.50;99.90
43151;DHT22;28755;51.478;5.702;2024-03-23T01:33:31;7.50;99.90
43151;DHT22;28755;51.478;5.702;2024-03-23T01:35:57;7.50;99.90
43151;DHT22;28755;51.478;5.702;2024-03-23T01:38:23;7.50;99.90
43151;DHT22;28755;51.478;5.702;2024-03-23T01:40:49;7.60;99.90
43151;DHT22;28755;51.478;5.702;2024-03-23T01:43:14;7.50;99.90
43151;DHT22;28755;51.478;5.702;2024-03-23T01:45:40;7.50;99.90
43151;DHT22;28755;51.478;5.702;2024-03-23T01:48:06;7.50;99.90
43151;DHT22;28755;51.478;5.702;2024-03-23T01:50:32;7.40;99.90
43151;DHT22;28755;51.478;5.702;2024-03-23T01:53:03;7.40;99.90
43151;DHT22;28755;51.478;5.702;2024-03-23T01:55:32;7.40;99.90
43151;DHT22;28755;51.478;5.702;2024-03-23T01:57:57;7.30;99.90
43151;DHT22;28755;51.478;5.702;2024-03-23T02:00:23;7.50;99.90
43151;DHT22;28755;51.478;5.702;2024-03-23T02:02:49;7.40;99.90
43151;DHT22;28755;51.478;5.702;2024-03-23T02:05:15;7.40;99.90
43151;DHT22;28755;51.478;5.702;2024-03-23T02:07:41;7.30;99.90
43151;DHT22;28755;51.478;5.702;2024-03-23T02:10:09;7.40;99.90
43151;DHT22;28755;51.478;5.702;2024-03-23T02:12:41;7.30;99.90
43151;DHT22;28755;51.478;5.702;2024-03-23T02:15:06;7.30;99.90
43151;DHT22;28755;51.478;5.702;2024-03-23T02:17:35;7.30;99.90
43151;DHT22;28755;51.478;5.702;2024-03-23T02:20:01;7.20;99.90
43151;DHT22;28755;51.478;5.702;2024-03-23T02:22:37;7.20;99.90
43151;DHT22;28755;51.478;5.702;2024-03-23T02:25:04;7.20;99.90
43151;DHT22;28755;51.478;5.702;2024-03-23T02:27:30;7.20;99.90
43151;DHT22;28755;51.478;5.702;2024-03-23T02:29:55;7.20;99.90
43151;DHT22;28755;51.478;5.702;2024-03-23T02:32:21;7.20;99.90
43151;DHT22;28755;51.478;5.702;2024-03-23T02:34:46;7.10;99.90
43151;DHT22;28755;51.478;5.702;2024-03-23T02:37:12;7.10;99.90
43151;DHT22;28755;51.478;5.702;2024-03-23T02:39:37;7.20;99.90
43151;DHT22;28755;51.478;5.702;2024-03-23T02:42:03;7.10;99.90
43151;DHT22;28755;51.478;5.702;2024-03-23T02:44:29;7.10;99.90
43151;DHT22;28755;51.478;5.702;2024-03-23T02:46:54;7.10;99.90
43151;DHT22;28755;51.478;5.702;2024-03-23T02:49:20;7.10;99.90
43151;DHT22;28755;51.478;5.702;2024-03-23T02:51:46;7.10;99.90
43151;DHT22;28755;51.478;5.702;2024-03-23T02:54:14;7.10;99.90
43151;DHT22;28755;51.478;5.702;2024-03-23T02:56:39;7.20;99.90
43151;DHT22;28755;51.478;5.702;2024-03-23T02:59:05;7.00;99.90
43151;DHT22;28755;51.478;5.702;2024-03-23T03:01:30;7.00;99.90
43151;DHT22;28755;51.478;5.702;2024-03-23T03:03:56;7.00;99.90
43151;DHT22;28755;51.478;5.702;2024-03-23T03:06:25;7.00;99.90
43151;DHT22;28755;51.478;5.702;2024-03-23T03:08:51;7.00;99.90
43151;DHT22;28755;51.478;5.702;2024-03-23T03:11:17;6.90;99.90
43151;DHT22;28755;51.478;5.702;2024-03-23T03:13:42;7.00;99.90
43151;DHT22;28755;51.478;5.702;2024-03-23T03:16:11;6.90;99.90
43151;DHT22;28755;51.478;5.702;2024-03-23T03:18:37;6.80;99.90
43151;DHT22;28755;51.478;5.702;2024-03-23T03:21:04;6.90;99.90
43151;DHT22;28755;51.478;5.702;2024-03-23T03:23:31;6.90;99.90
43151;DHT22;28755;51.478;5.702;2024-03-23T03:25:56;6.80;99.90
43151;DHT22;28755;51.478;5.702;2024-03-23T03:28:22;6.80;99.90
43151;DHT22;28755;51.478;5.702;2024-03-23T03:30:48;6.80;99.90
43151;DHT22;28755;51.478;5.702;2024-03-23T03:33:13;6.80;99.90
43151;DHT22;28755;51.478;5.702;2024-03-23T03:35:39;7.00;99.90
43151;DHT22;28755;51.478;5.702;2024-03-23T03:38:04;6.70;99.90
43151;DHT22;28755;51.478;5.702;2024-03-23T03:40:30;6.70;99.90
43151;DHT22;28755;51.478;5.702;2024-03-23T03:42:56;6.70;99.90
43151;DHT22;28755;51.478;5.702;2024-03-23T03:45:21;6.80;99.90
43151;DHT22;28755;51.478;5.702;2024-03-23T03:47:47;6.80;99.90
43151;DHT22;28755;51.478;5.702;2024-03-23T03:50:12;6.70;99.90
43151;DHT22;28755;51.478;5.702;2024-03-23T03:52:38;6.70;99.90
43151;DHT22;28755;51.478;5.702;2024-03-23T03:55:12;6.70;99.90
43151;DHT22;28755;51.478;5.702;2024-03-23T03:57:38;6.70;99.90
43151;DHT22;28755;51.478;5.702;2024-03-23T04:00:04;6.60;99.90
43151;DHT22;28755;51.478;5.702;2024-03-23T04:02:30;6.60;99.90
43151;DHT22;28755;51.478;5.702;2024-03-23T04:04:56;6.60;99.90
43151;DHT22;28755;51.478;5.702;2024-03-23T04:07:21;6.60;99.90
43151;DHT22;28755;51.478;5.702;2024-03-23T04:09:48;6.50;99.90
43151;DHT22;28755;51.478;5.702;2024-03-23T04:12:14;6.50;99.90
43151;DHT22;28755;51.478;5.702;2024-03-23T04:14:40;6.60;99.90
43151;DHT22;28755;51.478;5.702;2024-03-23T04:17:06;6.50;99.90
43151;DHT22;28755;51.478;5.702;2024-03-23T04:19:32;6.40;99.90
43151;DHT22;28755;51.478;5.702;2024-03-23T04:21:57;6.40;99.90
43151;DHT22;28755;51.478;5.702;2024-03-23T04:24:23;6.40;99.90
43151;DHT22;28755;51.478;5.702;2024-03-23T04:26:50;6.30;99.90
43151;DHT22;28755;51.478;5.702;2024-03-23T04:29:15;6.30;99.90
43151;DHT22;28755;51.478;5.702;2024-03-23T04:31:41;6.20;99.90
43151;DHT22;28755;51.478;5.702;2024-03-23T04:34:07;6.20;99.90
43151;DHT22;28755;51.478;5.702;2024-03-23T04:36:32;6.10;99.90
43151;DHT22;28755;51.478;5.702;2024-03-23T04:38:59;6.10;99.90
43151;DHT22;28755;51.478;5.702;2024-03-23T04:41:25;6.00;99.90
43151;DHT22;28755;51.478;5.702;2024-03-23T04:43:51;6.00;99.90
43151;DHT22;28755;51.478;5.702;2024-03-23T04:46:16;5.90;99.90
43151;DHT22;28755;51.478;5.702;2024-03-23T04:48:42;6.00;99.90
43151;DHT22;28755;51.478;5.702;2024-03-23T04:51:10;5.90;99.90
43151;DHT22;28755;51.478;5.702;2024-03-23T04:53:38;5.80;99.90
43151;DHT22;28755;51.478;5.702;2024-03-23T04:56:03;5.80;99.90
43151;DHT22;28755;51.478;5.702;2024-03-23T04:58:30;5.70;99.90
43151;DHT22;28755;51.478;5.702;2024-03-23T05:00:56;5.80;99.90
43151;DHT22;28755;51.478;5.702;2024-03-23T05:03:22;5.70;99.90
43151;DHT22;28755;51.478;5.702;2024-03-23T05:05:48;5.70;99.90
43151;DHT22;28755;51.478;5.702;2024-03-23T05:08:15;5.70;99.90
43151;DHT22;28755;51.478;5.702;2024-03-23T05:10:44;5.60;99.90
43151;DHT22;28755;51.478;5.702;2024-03-23T05:13:11;5.60;99.90
43151;DHT22;28755;51.478;5.702;2024-03-23T05:15:37;5.60;99.90
43151;DHT22;28755;51.478;5.702;2024-03-23T05:18:03;5.60;99.90
43151;DHT22;28755;51.478;5.702;2024-03-23T05:20:29;5.60;99.90
43151;DHT22;28755;51.478;5.702;2024-03-23T05:22:57;5.60;99.90
43151;DHT22;28755;51.478;5.702;2024-03-23T05:25:23;5.60;99.90
43151;DHT22;28755;51.478;5.702;2024-03-23T05:27:49;5.50;99.90
43151;DHT22;28755;51.478;5.702;2024-03-23T05:30:15;5.60;99.90
43151;DHT22;28755;51.478;5.702;2024-03-23T05:32:40;5.50;99.90
43151;DHT22;28755;51.478;5.702;2024-03-23T05:35:08;5.50;99.90
43151;DHT22;28755;51.478;5.702;2024-03-23T05:37:34;5.50;99.90
43151;DHT22;28755;51.478;5.702;2024-03-23T05:40:00;5.50;99.90
43151;DHT22;28755;51.478;5.702;2024-03-23T05:42:26;5.50;99.90
43151;DHT22;28755;51.478;5.702;2024-03-23T05:44:52;5.50;99.90
43151;DHT22;28755;51.478;5.702;2024-03-23T05:47:18;5.50;99.90
43151;DHT22;28755;51.478;5.702;2024-03-23T05:49:44;5.50;99.90
43151;DHT22;28755;51.478;5.702;2024-03-23T05:52:11;5.50;99.90
43151;DHT22;28755;51.478;5.702;2024-03-23T05:54:37;5.60;99.90
43151;DHT22;28755;51.478;5.702;2024-03-23T05:57:03;5.50;99.90
43151;DHT22;28755;51.478;5.702;2024-03-23T05:59:29;5.50;99.90
43151;DHT22;28755;51.478;5.702;2024-03-23T06:01:54;5.50;99.90
43151;DHT22;28755;51.478;5.702;2024-03-23T06:04:20;5.60;99.90
43151;DHT22;28755;51.478;5.702;2024-03-23T06:06:49;5.70;99.90
43151;DHT22;28755;51.478;5.702;2024-03-23T06:09:16;5.80;99.90
43151;DHT22;28755;51.478;5.702;2024-03-23T06:11:42;5.80;99.90
43151;DHT22;28755;51.478;5.702;2024-03-23T06:14:08;5.80;99.90
43151;DHT22;28755;51.478;5.702;2024-03-23T06:16:33;5.90;99.90
43151;DHT22;28755;51.478;5.702;2024-03-23T06:18:59;5.90;99.90
43151;DHT22;28755;51.478;5.702;2024-03-23T06:21:25;6.00;99.90
43151;DHT22;28755;51.478;5.702;2024-03-23T06:23:54;6.00;99.90
43151;DHT22;28755;51.478;5.702;2024-03-23T06:26:20;6.10;99.90
43151;DHT22;28755;51.478;5.702;2024-03-23T06:28:47;6.20;99.90
43151;DHT22;28755;51.478;5.702;2024-03-23T06:31:12;6.10;99.90
43151;DHT22;28755;51.478;5.702;2024-03-23T06:33:38;6.30;99.90
43151;DHT22;28755;51.478;5.702;2024-03-23T06:36:09;6.40;99.90
43151;DHT22;28755;51.478;5.702;2024-03-23T06:38:35;6.40;99.90
43151;DHT22;28755;51.478;5.702;2024-03-23T06:41:05;6.60;99.90
43151;DHT22;28755;51.478;5.702;2024-03-23T06:43:30;6.80;99.90
43151;DHT22;28755;51.478;5.702;2024-03-23T06:45:56;7.10;99.90
43151;DHT22;28755;51.478;5.702;2024-03-23T06:48:22;7.50;99.90
43151;DHT22;28755;51.478;5.702;2024-03-23T06:50:48;7.70;99.90
43151;DHT22;28755;51.478;5.702;2024-03-23T06:53:14;7.80;99.90
43151;DHT22;28755;51.478;5.702;2024-03-23T06:55:40;7.90;99.90
43151;DHT22;28755;51.478;5.702;2024-03-23T06:58:06;7.80;99.90
43151;DHT22;28755;51.478;5.702;2024-03-23T07:00:32;7.90;99.90
43151;DHT22;28755;51.478;5.702;2024-03-23T07:02:58;7.50;99.90
43151;DHT22;28755;51.478;5.702;2024-03-23T07:05:23;7.40;99.90
43151;DHT22;28755;51.478;5.702;2024-03-23T07:07:49;7.30;99.90
43151;DHT22;28755;51.478;5.702;2024-03-23T07:10:15;7.30;99.90
43151;DHT22;28755;51.478;5.702;2024-03-23T07:12:40;7.40;99.90
43151;DHT22;28755;51.478;5.702;2024-03-23T07:15:06;7.50;99.90
43151;DHT22;28755;51.478;5.702;2024-03-23T07:17:33;7.40;99.90
43151;DHT22;28755;51.478;5.702;2024-03-23T07:20:01;7.40;99.90
43151;DHT22;28755;51.478;5.702;2024-03-23T07:22:31;7.10;99.90
43151;DHT22;28755;51.478;5.702;2024-03-23T07:25:00;7.30;99.90
43151;DHT22;28755;51.478;5.702;2024-03-23T07:27:26;7.00;99.90
43151;DHT22;28755;51.478;5.702;2024-03-23T07:29:52;6.90;99.90
43151;DHT22;28755;51.478;5.702;2024-03-23T07:32:17;6.90;99.90
43151;DHT22;28755;51.478;5.702;2024-03-23T07:34:43;7.40;99.90
43151;DHT22;28755;51.478;5.702;2024-03-23T07:37:10;8.80;99.90
43151;DHT22;28755;51.478;5.702;2024-03-23T07:39:35;9.60;99.90
43151;DHT22;28755;51.478;5.702;2024-03-23T07:42:02;9.60;99.90
43151;DHT22;28755;51.478;5.702;2024-03-23T07:44:27;9.50;99.90
43151;DHT22;28755;51.478;5.702;2024-03-23T07:46:53;9.20;99.90
43151;DHT22;28755;51.478;5.702;2024-03-23T07:49:18;8.80;99.90
43151;DHT22;28755;51.478;5.702;2024-03-23T07:51:44;8.80;99.90
43151;DHT22;28755;51.478;5.702;2024-03-23T07:54:10;8.50;99.90
43151;DHT22;28755;51.478;5.702;2024-03-23T07:56:36;9.10;99.90
43151;DHT22;28755;51.478;5.702;2024-03-23T07:59:01;9.50;99.90
43151;DHT22;28755;51.478;5.702;2024-03-23T08:01:28;9.60;99.90
43151;DHT22;28755;51.478;5.702;2024-03-23T08:03:54;9.80;99.90
43151;DHT22;28755;51.478;5.702;2024-03-23T08:06:20;10.20;99.90
43151;DHT22;28755;51.478;5.702;2024-03-23T08:08:51;10.70;99.90
43151;DHT22;28755;51.478;5.702;2024-03-23T08:11:27;11.20;99.90
43151;DHT22;28755;51.478;5.702;2024-03-23T08:13:54;11.20;99.90
43151;DHT22;28755;51.478;5.702;2024-03-23T08:16:20;10.70;99.90
43151;DHT22;28755;51.478;5.702;2024-03-23T08:18:46;11.30;99.90
43151;DHT22;28755;51.478;5.702;2024-03-23T08:21:12;11.20;99.90
43151;DHT22;28755;51.478;5.702;2024-03-23T08:23:38;11.20;99.90
43151;DHT22;28755;51.478;5.702;2024-03-23T08:26:05;11.20;99.90
43151;DHT22;28755;51.478;5.702;2024-03-23T08:28:31;11.20;99.90
43151;DHT22;28755;51.478;5.702;2024-03-23T08:31:00;11.00;99.90
43151;DHT22;28755;51.478;5.702;2024-03-23T08:33:25;10.70;99.90
43151;DHT22;28755;51.478;5.702;2024-03-23T08:36:04;11.00;99.90
43151;DHT22;28755;51.478;5.702;2024-03-23T08:38:30;11.00;99.90
43151;DHT22;28755;51.478;5.702;2024-03-23T08:41:06;12.10;99.90
43151;DHT22;28755;51.478;5.702;2024-03-23T08:43:39;12.60;99.90
43151;DHT22;28755;51.478;5.702;2024-03-23T08:46:06;12.90;99.90
43151;DHT22;28755;51.478;5.702;2024-03-23T08:48:32;12.50;99.90
43151;DHT22;28755;51.478;5.702;2024-03-23T08:51:06;11.80;99.90
43151;DHT22;28755;51.478;5.702;2024-03-23T08:53:32;11.00;99.90
43151;DHT22;28755;51.478;5.702;2024-03-23T08:55:59;11.50;99.90
43151;DHT22;28755;51.478;5.702;2024-03-23T08:58:26;12.20;99.90
43151;DHT22;28755;51.478;5.702;2024-03-23T09:00:52;12.40;99.90
43151;DHT22;28755;51.478;5.702;2024-03-23T09:03:18;11.90;99.90
43151;DHT22;28755;51.478;5.702;2024-03-23T09:05:44;10.90;99.90
43151;DHT22;28755;51.478;5.702;2024-03-23T09:08:09;10.10;99.90
43151;DHT22;28755;51.478;5.702;2024-03-23T09:10:38;9.60;99.90
43151;DHT22;28755;51.478;5.702;2024-03-23T09:13:04;9.20;99.90
43151;DHT22;28755;51.478;5.702;2024-03-23T09:15:35;9.20;99.90
43151;DHT22;28755;51.478;5.702;2024-03-23T09:18:01;9.20;99.90
43151;DHT22;28755;51.478;5.702;2024-03-23T09:20:27;9.00;99.90
43151;DHT22;28755;51.478;5.702;2024-03-23T09:22:53;8.80;99.90
43151;DHT22;28755;51.478;5.702;2024-03-23T09:25:19;8.10;99.90
43151;DHT22;28755;51.478;5.702;2024-03-23T09:27:47;7.30;99.90
43151;DHT22;28755;51.478;5.702;2024-03-23T09:30:14;6.60;99.90
43151;DHT22;28755;51.478;5.702;2024-03-23T09:32:41;6.30;99.90
43151;DHT22;28755;51.478;5.702;2024-03-23T09:35:07;6.30;99.90
43151;DHT22;28755;51.478;5.702;2024-03-23T09:37:33;7.10;99.90
43151;DHT22;28755;51.478;5.702;2024-03-23T09:39:58;8.70;99.90
43151;DHT22;28755;51.478;5.702;2024-03-23T09:42:24;10.70;99.90
43151;DHT22;28755;51.478;5.702;2024-03-23T09:44:51;12.90;99.90
43151;DHT22;28755;51.478;5.702;2024-03-23T09:47:17;14.20;99.90
43151;DHT22;28755;51.478;5.702;2024-03-23T09:49:43;13.40;99.90
43151;DHT22;28755;51.478;5.702;2024-03-23T09:52:09;12.90;99.90
43151;DHT22;28755;51.478;5.702;2024-03-23T09:54:35;13.10;99.90
43151;DHT22;28755;51.478;5.702;2024-03-23T09:57:00;11.60;99.90
43151;DHT22;28755;51.478;5.702;2024-03-23T09:59:26;12.40;99.90
43151;DHT22;28755;51.478;5.702;2024-03-23T10:01:53;14.30;99.90
43151;DHT22;28755;51.478;5.702;2024-03-23T10:04:37;15.80;99.90
43151;DHT22;28755;51.478;5.702;2024-03-23T10:07:18;16.60;99.90
43151;DHT22;28755;51.478;5.702;2024-03-23T10:09:44;16.10;99.90
43151;DHT22;28755;51.478;5.702;2024-03-23T10:12:13;16.80;99.90
43151;DHT22;28755;51.478;5.702;2024-03-23T10:14:40;16.40;99.90
43151;DHT22;28755;51.478;5.702;2024-03-23T10:17:22;17.00;99.90
43151;DHT22;28755;51.478;5.702;2024-03-23T10:19:52;17.40;99.90
43151;DHT22;28755;51.478;5.702;2024-03-23T10:22:22;17.70;99.90
43151;DHT22;28755;51.478;5.702;2024-03-23T10:24:49;17.20;99.90
43151;DHT22;28755;51.478;5.702;2024-03-23T10:27:19;15.10;99.90
43151;DHT22;28755;51.478;5.702;2024-03-23T10:29:45;12.80;99.90
43151;DHT22;28755;51.478;5.702;2024-03-23T10:32:12;10.60;99.90
43151;DHT22;28755;51.478;5.702;2024-03-23T10:34:38;9.70;99.90
43151;DHT22;28755;51.478;5.702;2024-03-23T10:37:05;9.10;99.90
43151;DHT22;28755;51.478;5.702;2024-03-23T10:39:33;8.70;99.90
43151;DHT22;28755;51.478;5.702;2024-03-23T10:42:08;8.70;99.90
43151;DHT22;28755;51.478;5.702;2024-03-23T10:44:35;8.80;99.90
43151;DHT22;28755;51.478;5.702;2024-03-23T10:47:01;12.00;99.90
43151;DHT22;28755;51.478;5.702;2024-03-23T10:49:34;14.40;99.90
43151;DHT22;28755;51.478;5.702;2024-03-23T10:52:04;15.10;99.90
43151;DHT22;28755;51.478;5.702;2024-03-23T10:54:31;16.70;99.90
43151;DHT22;28755;51.478;5.702;2024-03-23T10:57:01;18.00;99.90
43151;DHT22;28755;51.478;5.702;2024-03-23T10:59:29;17.90;99.90
43151;DHT22;28755;51.478;5.702;2024-03-23T11:01:57;19.20;99.90
43151;DHT22;28755;51.478;5.702;2024-03-23T11:04:36;19.50;99.90
43151;DHT22;28755;51.478;5.702;2024-03-23T11:09:49;19.10;99.90
43151;DHT22;28755;51.478;5.702;2024-03-23T11:14:52;17.20;99.90
43151;DHT22;28755;51.478;5.702;2024-03-23T11:17:20;17.30;99.90
43151;DHT22;28755;51.478;5.702;2024-03-23T11:19:57;16.60;99.90
43151;DHT22;28755;51.478;5.702;2024-03-23T11:22:44;16.70;99.90
43151;DHT22;28755;51.478;5.702;2024-03-23T11:25:20;16.90;99.90
43151;DHT22;28755;51.478;5.702;2024-03-23T11:27:48;18.00;99.90
43151;DHT22;28755;51.478;5.702;2024-03-23T11:30:20;16.70;99.90
43151;DHT22;28755;51.478;5.702;2024-03-23T11:32:48;14.70;99.90
43151;DHT22;28755;51.478;5.702;2024-03-23T11:35:31;13.20;99.90
43151;DHT22;28755;51.478;5.702;2024-03-23T11:38:11;14.50;99.90
43151;DHT22;28755;51.478;5.702;2024-03-23T11:40:42;16.20;99.90
43151;DHT22;28755;51.478;5.702;2024-03-23T11:43:09;17.30;99.90
43151;DHT22;28755;51.478;5.702;2024-03-23T11:45:43;15.50;99.90
43151;DHT22;28755;51.478;5.702;2024-03-23T11:48:11;15.80;99.90
43151;DHT22;28755;51.478;5.702;2024-03-23T11:50:41;16.30;99.90
43151;DHT22;28755;51.478;5.702;2024-03-23T11:53:12;17.30;99.90
43151;DHT22;28755;51.478;5.702;2024-03-23T11:55:47;16.40;99.90
43151;DHT22;28755;51.478;5.702;2024-03-23T11:58:13;16.30;99.90
43151;DHT22;28755;51.478;5.702;2024-03-23T12:00:40;15.80;99.90
43151;DHT22;28755;51.478;5.702;2024-03-23T12:03:06;14.60;99.90
43151;DHT22;28755;51.478;5.702;2024-03-23T12:05:32;13.30;99.90
43151;DHT22;28755;51.478;5.702;2024-03-23T12:11:03;11.70;99.90
43151;DHT22;28755;51.478;5.702;2024-03-23T12:13:29;11.60;99.90
43151;DHT22;28755;51.478;5.702;2024-03-23T12:15:55;11.70;99.90
43151;DHT22;28755;51.478;5.702;2024-03-23T12:18:34;10.90;99.90
43151;DHT22;28755;51.478;5.702;2024-03-23T12:21:00;10.40;99.90
43151;DHT22;28755;51.478;5.702;2024-03-23T12:23:25;10.00;99.90
43151;DHT22;28755;51.478;5.702;2024-03-23T12:25:51;9.70;99.90
43151;DHT22;28755;51.478;5.702;2024-03-23T12:28:16;9.40;99.90
43151;DHT22;28755;51.478;5.702;2024-03-23T12:30:42;9.40;99.90
43151;DHT22;28755;51.478;5.702;2024-03-23T12:33:08;9.00;99.90
43151;DHT22;28755;51.478;5.702;2024-03-23T12:35:34;8.70;99.90
43151;DHT22;28755;51.478;5.702;2024-03-23T12:38:00;8.90;99.90
43151;DHT22;28755;51.478;5.702;2024-03-23T12:40:27;10.50;99.90
43151;DHT22;28755;51.478;5.702;2024-03-23T12:42:53;13.00;99.90
43151;DHT22;28755;51.478;5.702;2024-03-23T12:45:19;14.60;99.90
43151;DHT22;28755;51.478;5.702;2024-03-23T12:47:45;14.90;99.90
43151;DHT22;28755;51.478;5.702;2024-03-23T12:50:10;14.50;99.90
43151;DHT22;28755;51.478;5.702;2024-03-23T12:52:37;14.40;99.90
43151;DHT22;28755;51.478;5.702;2024-03-23T12:55:03;14.30;99.90
43151;DHT22;28755;51.478;5.702;2024-03-23T12:57:31;13.00;99.90
43151;DHT22;28755;51.478;5.702;2024-03-23T12:59:56;12.20;99.90
43151;DHT22;28755;51.478;5.702;2024-03-23T13:02:23;12.30;99.90
43151;DHT22;28755;51.478;5.702;2024-03-23T13:04:52;13.10;99.90
43151;DHT22;28755;51.478;5.702;2024-03-23T13:07:19;13.60;99.90
43151;DHT22;28755;51.478;5.702;2024-03-23T13:09:45;13.00;99.90
43151;DHT22;28755;51.478;5.702;2024-03-23T13:12:11;12.50;99.90
43151;DHT22;28755;51.478;5.702;2024-03-23T13:14:40;11.70;99.90
43151;DHT22;28755;51.478;5.702;2024-03-23T13:17:06;11.30;99.90
43151;DHT22;28755;51.478;5.702;2024-03-23T13:19:33;11.00;99.90
43151;DHT22;28755;51.478;5.702;2024-03-23T13:21:59;10.90;99.90
43151;DHT22;28755;51.478;5.702;2024-03-23T13:24:26;11.00;99.90
43151;DHT22;28755;51.478;5.702;2024-03-23T13:26:52;11.80;99.90
43151;DHT22;28755;51.478;5.702;2024-03-23T13:29:19;12.50;99.90
43151;DHT22;28755;51.478;5.702;2024-03-23T13:31:45;13.00;99.90
43151;DHT22;28755;51.478;5.702;2024-03-23T13:34:11;13.70;99.90
43151;DHT22;28755;51.478;5.702;2024-03-23T13:36:36;13.70;99.90
43151;DHT22;28755;51.478;5.702;2024-03-23T13:39:03;14.20;99.90
43151;DHT22;28755;51.478;5.702;2024-03-23T13:41:39;13.30;99.90
43151;DHT22;28755;51.478;5.702;2024-03-23T13:44:06;12.40;99.90
43151;DHT22;28755;51.478;5.702;2024-03-23T13:46:32;12.30;99.90
43151;DHT22;28755;51.478;5.702;2024-03-23T13:48:58;11.90;99.90
43151;DHT22;28755;51.478;5.702;2024-03-23T13:51:24;11.50;99.90
43151;DHT22;28755;51.478;5.702;2024-03-23T13:53:55;11.60;99.90
43151;DHT22;28755;51.478;5.702;2024-03-23T13:56:28;11.40;99.90
43151;DHT22;28755;51.478;5.702;2024-03-23T13:58:58;11.50;99.90
43151;DHT22;28755;51.478;5.702;2024-03-23T14:01:23;12.40;99.90
43151;DHT22;28755;51.478;5.702;2024-03-23T14:03:49;13.00;99.90
43151;DHT22;28755;51.478;5.702;2024-03-23T14:06:15;13.30;99.90
43151;DHT22;28755;51.478;5.702;2024-03-23T14:08:41;13.00;99.90
43151;DHT22;28755;51.478;5.702;2024-03-23T14:11:07;12.20;99.90
43151;DHT22;28755;51.478;5.702;2024-03-23T14:13:34;11.30;99.90
43151;DHT22;28755;51.478;5.702;2024-03-23T14:16:01;10.60;99.90
43151;DHT22;28755;51.478;5.702;2024-03-23T14:18:26;10.20;99.90
43151;DHT22;28755;51.478;5.702;2024-03-23T14:20:55;9.90;99.90
43151;DHT22;28755;51.478;5.702;2024-03-23T14:23:24;9.90;99.90
43151;DHT22;28755;51.478;5.702;2024-03-23T14:25:52;10.40;99.90
43151;DHT22;28755;51.478;5.702;2024-03-23T14:28:17;11.00;99.90
43151;DHT22;28755;51.478;5.702;2024-03-23T14:30:43;11.30;99.90
43151;DHT22;28755;51.478;5.702;2024-03-23T14:33:09;10.80;99.90
43151;DHT22;28755;51.478;5.702;2024-03-23T14:35:35;10.80;99.90
43151;DHT22;28755;51.478;5.702;2024-03-23T14:38:00;11.30;99.90
43151;DHT22;28755;51.478;5.702;2024-03-23T14:40:26;11.60;99.90
43151;DHT22;28755;51.478;5.702;2024-03-23T14:42:55;12.10;99.90
43151;DHT22;28755;51.478;5.702;2024-03-23T14:45:23;12.20;99.90
43151;DHT22;28755;51.478;5.702;2024-03-23T14:47:53;11.90;99.90
43151;DHT22;28755;51.478;5.702;2024-03-23T14:50:19;11.70;99.90
43151;DHT22;28755;51.478;5.702;2024-03-23T14:52:48;11.50;99.90
43151;DHT22;28755;51.478;5.702;2024-03-23T14:55:14;12.10;99.90
43151;DHT22;28755;51.478;5.702;2024-03-23T14:57:39;12.80;99.90
43151;DHT22;28755;51.478;5.702;2024-03-23T15:00:10;12.40;99.90
43151;DHT22;28755;51.478;5.702;2024-03-23T15:02:39;12.30;99.90
43151;DHT22;28755;51.478;5.702;2024-03-23T15:05:05;12.70;99.90
43151;DHT22;28755;51.478;5.702;2024-03-23T15:07:34;13.30;99.90
43151;DHT22;28755;51.478;5.702;2024-03-23T15:10:00;13.40;99.90
43151;DHT22;28755;51.478;5.702;2024-03-23T15:12:25;13.50;99.90
43151;DHT22;28755;51.478;5.702;2024-03-23T15:14:51;12.90;99.90
43151;DHT22;28755;51.478;5.702;2024-03-23T15:17:16;12.60;99.90
43151;DHT22;28755;51.478;5.702;2024-03-23T15:19:43;12.60;99.90
43151;DHT22;28755;51.478;5.702;2024-03-23T15:22:09;12.40;99.90
43151;DHT22;28755;51.478;5.702;2024-03-23T15:24:35;12.30;99.90
43151;DHT22;28755;51.478;5.702;2024-03-23T15:27:02;12.30;99.90
43151;DHT22;28755;51.478;5.702;2024-03-23T15:29:28;12.30;99.90
43151;DHT22;28755;51.478;5.702;2024-03-23T15:31:54;11.50;99.90
43151;DHT22;28755;51.478;5.702;2024-03-23T15:34:20;10.80;99.90
43151;DHT22;28755;51.478;5.702;2024-03-23T15:36:48;10.50;99.90
43151;DHT22;28755;51.478;5.702;2024-03-23T15:39:14;9.80;99.90
43151;DHT22;28755;51.478;5.702;2024-03-23T15:41:44;9.70;99.90
43151;DHT22;28755;51.478;5.702;2024-03-23T15:44:09;9.50;99.90
43151;DHT22;28755;51.478;5.702;2024-03-23T15:46:35;9.50;99.90
43151;DHT22;28755;51.478;5.702;2024-03-23T15:49:00;9.20;99.90
43151;DHT22;28755;51.478;5.702;2024-03-23T15:51:26;9.00;99.90
43151;DHT22;28755;51.478;5.702;2024-03-23T15:53:57;8.50;99.90
43151;DHT22;28755;51.478;5.702;2024-03-23T15:56:22;8.10;99.90
43151;DHT22;28755;51.478;5.702;2024-03-23T15:58:48;7.80;99.90
43151;DHT22;28755;51.478;5.702;2024-03-23T16:01:14;7.30;99.90
43151;DHT22;28755;51.478;5.702;2024-03-23T16:03:39;7.20;99.90
43151;DHT22;28755;51.478;5.702;2024-03-23T16:06:06;7.20;99.90
43151;DHT22;28755;51.478;5.702;2024-03-23T16:08:34;7.20;99.90
43151;DHT22;28755;51.478;5.702;2024-03-23T16:11:01;7.10;99.90
43151;DHT22;28755;51.478;5.702;2024-03-23T16:13:28;6.90;99.90
43151;DHT22;28755;51.478;5.702;2024-03-23T16:16:06;6.80;99.90
43151;DHT22;28755;51.478;5.702;2024-03-23T16:18:36;6.70;99.90
43151;DHT22;28755;51.478;5.702;2024-03-23T16:21:04;6.80;99.90
43151;DHT22;28755;51.478;5.702;2024-03-23T16:23:32;6.70;99.90
43151;DHT22;28755;51.478;5.702;2024-03-23T16:25:57;6.70;99.90
43151;DHT22;28755;51.478;5.702;2024-03-23T16:28:29;6.60;99.90
43151;DHT22;28755;51.478;5.702;2024-03-23T16:31:05;6.50;99.90
43151;DHT22;28755;51.478;5.702;2024-03-23T16:33:37;6.20;99.90
43151;DHT22;28755;51.478;5.702;2024-03-23T16:36:06;6.30;99.90
43151;DHT22;28755;51.478;5.702;2024-03-23T16:38:33;6.30;99.90